LFLN/SYT METAR and TAF weather

Enter ICAO airport designator
Station Type Date Time Source
LFLN METAR 2019/08/24 20:30 UTC NOAA

LFLN 242030Z AUTO 00000KT CAVOK 21/13 Q1017 NOSIG


Station Type Date Time Source
LFLN Decoded METAR 2019/08/24 20:30 UTC NOAA

Station name not available
Aug 24, 2019 - 04:30 PM EDT / 2019.08.24 2030 UTC
Wind: Calm:0
Visibility: greater than 7 mile(s):0
Temperature: 69 F (21 C)
Dew Point: 55 F (13 C)
Relative Humidity: 60%
Pressure (altimeter): 30.03 in. Hg (1017 hPa)
ob: LFLN 242030Z AUTO 00000KT CAVOK 21/13 Q1017 NOSIG
cycle: 20

Station Type Date Time Source
LFLN TAF UTC NOAA

Error!

Example: see airport list